Time;durP1;ratioP1;P1;durP2;ratioP2;P2;SDS_P1;SDS_P2;PMS_P1;PMS_P2;Temp;Humidity;BMP_temperature;BMP_pressure;BME280_temperature;BME280_humidity;BME280_pressure;Samples;Min_cycle;Max_cycle;Signal;HPM_P1;HPM_P2
2022/03/29 00:01:00;;;;;;;5.47;3.70;;;18.60;54.40;;;;;;5110848;27;45231;-79
2022/03/29 00:03:28;;;;;;;6.85;3.20;;;18.60;54.20;;;;;;5117635;27;45420;-79
2022/03/29 00:05:54;;;;;;;6.53;3.33;;;18.70;54.30;;;;;;5110218;27;45180;-79
2022/03/29 00:08:22;;;;;;;6.80;3.30;;;18.70;54.30;;;;;;5109812;27;48193;-79
2022/03/29 00:10:50;;;;;;;6.32;3.30;;;18.70;54.20;;;;;;5108841;27;45290;-79
2022/03/29 00:13:17;;;;;;;7.15;3.78;;;18.70;54.20;;;;;;5110525;27;45406;-80
2022/03/29 00:15:45;;;;;;;7.43;3.05;;;18.70;54.20;;;;;;5108863;27;45262;-80
2022/03/29 00:18:11;;;;;;;5.43;3.20;;;18.70;54.10;;;;;;5108435;27;47953;-79
2022/03/29 00:20:38;;;;;;;6.13;3.13;;;18.70;53.90;;;;;;5105058;27;45147;-80
2022/03/29 00:23:05;;;;;;;7.13;3.47;;;18.70;54.00;;;;;;5107960;27;45331;-79
2022/03/29 00:25:33;;;;;;;6.93;3.53;;;18.60;53.90;;;;;;5106183;27;45295;-79
2022/03/29 00:28:01;;;;;;;8.70;3.75;;;18.60;53.50;;;;;;5100690;27;46644;-79
2022/03/29 00:30:28;;;;;;;4.28;2.92;;;18.60;53.90;;;;;;5107397;27;45207;-79
2022/03/29 00:32:55;;;;;;;4.85;3.10;;;18.60;53.70;;;;;;5107942;27;45284;-79
2022/03/29 00:35:24;;;;;;;7.93;3.40;;;18.60;53.90;;;;;;5110181;27;45478;-79
2022/03/29 00:37:51;;;;;;;7.50;3.35;;;18.60;53.70;;;;;;5107038;27;46603;-80
2022/03/29 00:40:19;;;;;;;7.45;3.65;;;18.60;53.60;;;;;;5107240;27;45197;-80
2022/03/29 00:42:46;;;;;;;7.45;3.80;;;18.60;53.40;;;;;;5109907;27;45305;-79
2022/03/29 00:45:14;;;;;;;6.38;3.33;;;18.60;53.50;;;;;;5107574;27;45438;-79
2022/03/29 00:47:41;;;;;;;5.63;3.40;;;18.60;53.70;;;;;;5108510;27;45517;-79
2022/03/29 00:50:09;;;;;;;6.72;3.20;;;18.60;53.80;;;;;;5090972;27;45246;-79
2022/03/29 00:52:38;;;;;;;5.07;2.95;;;18.60;55.10;;;;;;5106654;27;45191;-79
2022/03/29 00:55:07;;;;;;;6.45;3.30;;;18.60;53.70;;;;;;5109044;27;45171;-79
2022/03/29 00:57:35;;;;;;;5.68;3.25;;;18.60;53.90;;;;;;5107829;27;47040;-79
2022/03/29 01:00:03;;;;;;;5.75;3.00;;;18.70;53.70;;;;;;5107538;27;45233;-79
2022/03/29 01:02:31;;;;;;;5.30;3.03;;;18.60;53.50;;;;;;5105612;27;45246;-79
2022/03/29 01:04:58;;;;;;;4.90;2.90;;;18.70;53.50;;;;;;5109638;27;45445;-79
2022/03/29 01:07:27;;;;;;;8.32;3.55;;;18.70;53.50;;;;;;5106374;27;46341;-79
2022/03/29 01:09:54;;;;;;;5.13;3.35;;;18.70;53.40;;;;;;5108571;27;45511;-79
2022/03/29 01:12:22;;;;;;;5.72;2.85;;;18.70;53.40;;;;;;5107651;27;45184;-79
2022/03/29 01:14:49;;;;;;;6.68;2.75;;;18.70;53.30;;;;;;5101082;27;45097;-78
2022/03/29 01:20:05;;;;;;;6.20;3.28;;;18.70;53.30;;;;;;5089741;27;45229;-78
2022/03/29 01:22:34;;;;;;;7.72;3.70;;;18.70;52.90;;;;;;5109328;27;45327;-79
2022/03/29 01:25:01;;;;;;;6.15;3.72;;;18.70;52.90;;;;;;5106891;27;46921;-79
2022/03/29 01:27:31;;;;;;;5.53;3.13;;;18.60;52.80;;;;;;5108179;27;46504;-79
2022/03/29 01:29:59;;;;;;;6.30;3.67;;;18.60;52.80;;;;;;5107846;27;45237;-78
2022/03/29 01:32:29;;;;;;;7.63;3.58;;;18.60;52.80;;;;;;5095881;27;45365;-78
2022/03/29 01:34:57;;;;;;;6.60;3.33;;;18.60;53.20;;;;;;5107769;27;45179;-78
2022/03/29 01:37:23;;;;;;;6.25;3.47;;;18.60;52.80;;;;;;5107694;27;45297;-78
2022/03/29 01:39:52;;;;;;;8.02;3.40;;;18.60;52.90;;;;;;5108419;27;45377;-79
2022/03/29 01:42:19;;;;;;;5.97;3.50;;;18.60;53.20;;;;;;5108722;27;45363;-79
2022/03/29 01:44:46;;;;;;;6.22;3.72;;;18.60;52.80;;;;;;5106041;27;45153;-79
2022/03/29 01:47:13;;;;;;;7.47;4.00;;;18.60;52.80;;;;;;5108031;27;46527;-79
2022/03/29 01:49:40;;;;;;;8.27;4.13;;;18.60;52.80;;;;;;5105416;27;45352;-79
2022/03/29 01:52:08;;;;;;;6.45;4.35;;;18.60;52.80;;;;;;5107893;27;45306;-79
2022/03/29 01:54:35;;;;;;;6.20;3.85;;;18.60;52.80;;;;;;5109149;27;45384;-79
2022/03/29 01:57:03;;;;;;;5.32;3.30;;;18.60;52.80;;;;;;5105913;27;46391;-79
2022/03/29 02:00:30;;;;;;;5.63;3.05;;;18.60;53.00;;;;;;5104580;27;45284;-79
2022/03/29 02:02:17;;;;;;;6.90;3.13;;;18.60;53.10;;;;;;5104659;27;45303;-79
2022/03/29 02:04:44;;;;;;;4.93;2.97;;;18.70;52.90;;;;;;5089398;27;45463;-79
2022/03/29 02:07:11;;;;;;;8.23;3.45;;;18.70;52.90;;;;;;5105531;27;48309;-79
2022/03/29 02:09:38;;;;;;;4.47;2.90;;;18.70;52.90;;;;;;5108279;27;45342;-79
2022/03/29 02:12:07;;;;;;;6.85;3.65;;;18.70;53.00;;;;;;5107555;27;45316;-79
2022/03/29 02:14:35;;;;;;;7.03;3.45;;;18.70;52.90;;;;;;5109002;27;45444;-79
2022/03/29 02:17:02;;;;;;;5.82;3.03;;;18.70;52.90;;;;;;5106805;27;46853;-79
2022/03/29 02:19:28;;;;;;;7.25;3.90;;;18.70;52.90;;;;;;5106378;27;45189;-79
2022/03/29 02:21:55;;;;;;;4.68;3.08;;;18.70;52.90;;;;;;5103537;27;45630;-79
2022/03/29 02:24:22;;;;;;;8.10;3.70;;;18.70;52.90;;;;;;5101300;27;45250;-79
2022/03/29 02:26:49;;;;;;;6.18;3.13;;;18.70;52.90;;;;;;5100971;27;47426;-78
2022/03/29 02:29:17;;;;;;;7.15;3.40;;;18.70;52.90;;;;;;5102168;27;45473;-79
2022/03/29 02:31:44;;;;;;;7.22;3.30;;;18.70;52.90;;;;;;5106806;27;45326;-79
2022/03/29 02:34:11;;;;;;;7.80;3.65;;;18.70;52.90;;;;;;5104774;27;45486;-79
2022/03/29 02:36:37;;;;;;;5.50;3.50;;;18.70;52.90;;;;;;5107564;27;48477;-79
2022/03/29 02:39:04;;;;;;;6.35;4.03;;;18.70;52.90;;;;;;5107111;27;45236;-79
2022/03/29 02:41:31;;;;;;;6.90;3.60;;;18.70;52.90;;;;;;5106756;27;45143;-79
2022/03/29 02:43:58;;;;;;;7.63;3.47;;;18.70;52.90;;;;;;5100635;27;45194;-79
2022/03/29 02:46:26;;;;;;;5.68;3.45;;;18.70;52.90;;;;;;5098023;27;45485;-79
2022/03/29 02:48:53;;;;;;;4.93;3.30;;;18.70;52.90;;;;;;5104795;27;45231;-78
2022/03/29 02:51:20;;;;;;;5.30;3.38;;;18.60;52.80;;;;;;5107075;27;45217;-79
2022/03/29 02:53:47;;;;;;;7.32;4.00;;;18.60;52.80;;;;;;5099908;27;45371;-79
2022/03/29 02:56:14;;;;;;;6.70;3.65;;;18.60;52.80;;;;;;5106911;27;46406;-79
2022/03/29 02:58:41;;;;;;;6.30;3.80;;;18.60;52.80;;;;;;5102643;27;45260;-79
2022/03/29 03:01:08;;;;;;;6.15;3.20;;;18.60;52.80;;;;;;5107598;27;45198;-79
2022/03/29 03:03:36;;;;;;;6.70;4.10;;;18.60;52.80;;;;;;5105542;27;45360;-79
2022/03/29 03:06:03;;;;;;;5.15;3.33;;;18.60;52.80;;;;;;5105502;27;47868;-79
2022/03/29 03:08:30;;;;;;;5.57;3.78;;;18.60;52.90;;;;;;5107949;27;45238;-78
2022/03/29 03:10:57;;;;;;;8.73;3.78;;;18.70;52.90;;;;;;5111119;27;45281;-78
2022/03/29 03:13:24;;;;;;;5.88;3.78;;;18.70;52.90;;;;;;5109921;27;45400;-78
2022/03/29 03:15:50;;;;;;;6.22;3.60;;;18.70;52.90;;;;;;5111380;27;45486;-79
2022/03/29 03:18:17;;;;;;;8.38;4.13;;;18.70;52.90;;;;;;5107035;27;45528;-79
2022/03/29 03:20:45;;;;;;;7.07;4.30;;;18.70;52.90;;;;;;5110558;27;45272;-78
2022/03/29 03:23:12;;;;;;;7.68;4.40;;;18.60;52.80;;;;;;5111085;27;45209;-78
2022/03/29 03:25:39;;;;;;;10.02;4.50;;;18.60;52.80;;;;;;5111293;27;47396;-78
2022/03/29 03:28:06;;;;;;;7.03;4.60;;;18.60;52.80;;;;;;5108640;27;45404;-78
2022/03/29 03:30:34;;;;;;;7.45;4.18;;;18.60;52.80;;;;;;5109850;27;45313;-78
2022/03/29 03:33:01;;;;;;;7.80;4.53;;;18.60;52.80;;;;;;5116324;27;45265;-78
2022/03/29 03:35:28;;;;;;;8.38;4.68;;;18.60;52.80;;;;;;5131562;27;48000;-78
2022/03/29 03:37:56;;;;;;;8.13;4.35;;;18.60;53.00;;;;;;5110343;27;45344;-78
2022/03/29 03:40:22;;;;;;;8.60;4.38;;;18.60;53.30;;;;;;5109733;27;45215;-78
2022/03/29 03:42:49;;;;;;;7.00;3.95;;;18.60;53.50;;;;;;5110072;27;45431;-79
2022/03/29 03:45:17;;;;;;;7.05;3.72;;;18.60;53.60;;;;;;5110299;27;48501;-78
2022/03/29 03:47:46;;;;;;;5.72;3.50;;;18.60;53.50;;;;;;5110500;27;45371;-79
2022/03/29 03:50:13;;;;;;;6.13;3.65;;;18.60;53.50;;;;;;5108313;27;45187;-78
2022/03/29 03:52:40;;;;;;;7.68;3.95;;;18.60;54.70;;;;;;5110574;27;45268;-78
2022/03/29 03:55:09;;;;;;;6.28;3.78;;;18.60;53.50;;;;;;5110729;27;48237;-78
2022/03/29 03:57:36;;;;;;;5.63;3.10;;;18.60;53.50;;;;;;5107837;27;45780;-78
2022/03/29 04:00:03;;;;;;;6.97;3.90;;;18.60;53.60;;;;;;5110090;27;45164;-79
2022/03/29 04:02:30;;;;;;;6.65;4.07;;;18.60;54.70;;;;;;5105090;27;46856;-78
2022/03/29 04:04:57;;;;;;;6.55;3.50;;;18.70;53.50;;;;;;5111035;27;46577;-78
2022/03/29 04:07:24;;;;;;;7.57;3.88;;;18.60;53.30;;;;;;5109166;27;45259;-80
2022/03/29 04:09:51;;;;;;;6.82;4.07;;;18.60;53.40;;;;;;5107342;27;45621;-79
2022/03/29 04:12:19;;;;;;;5.88;3.75;;;18.60;53.60;;;;;;5110658;27;45459;-78
2022/03/29 04:14:45;;;;;;;5.65;3.17;;;18.60;53.90;;;;;;5108953;27;47204;-78
2022/03/29 04:17:13;;;;;;;6.43;3.47;;;18.50;53.90;;;;;;5109169;27;45201;-78
2022/03/29 04:19:40;;;;;;;6.20;3.40;;;18.50;54.00;;;;;;5107529;27;45290;-78
2022/03/29 04:22:07;;;;;;;5.93;3.90;;;18.50;54.00;;;;;;5104582;27;45312;-78
2022/03/29 04:24:34;;;;;;;8.75;4.00;;;18.50;53.90;;;;;;5108326;27;46202;-78
2022/03/29 04:27:00;;;;;;;5.97;4.10;;;18.50;54.00;;;;;;5106632;27;45161;-78
2022/03/29 04:29:29;;;;;;;6.38;4.00;;;18.50;53.90;;;;;;5108565;27;45276;-78
2022/03/29 04:31:56;;;;;;;7.57;3.78;;;18.50;53.90;;;;;;5105333;27;45516;-78
2022/03/29 04:34:23;;;;;;;5.65;3.67;;;18.50;54.00;;;;;;5109193;27;48344;-78
2022/03/29 04:36:50;;;;;;;6.03;3.53;;;18.50;54.00;;;;;;5105143;27;45438;-78
2022/03/29 04:39:17;;;;;;;6.20;3.80;;;18.50;53.70;;;;;;5105588;27;45346;-78
2022/03/29 04:41:44;;;;;;;6.43;3.83;;;18.50;53.70;;;;;;5109972;27;46111;-78
2022/03/29 04:44:11;;;;;;;6.45;3.92;;;18.50;53.70;;;;;;5111797;27;46602;-79
2022/03/29 04:46:39;;;;;;;4.75;3.25;;;18.50;53.00;;;;;;5112623;27;45239;-78
2022/03/29 04:49:05;;;;;;;6.90;3.75;;;18.50;53.10;;;;;;5109012;27;45301;-79
2022/03/29 04:51:34;;;;;;;8.95;4.90;;;18.50;52.70;;;;;;5108385;27;45540;-79
2022/03/29 04:54:01;;;;;;;7.78;4.47;;;18.50;52.70;;;;;;5107994;27;48524;-80
2022/03/29 04:56:29;;;;;;;8.85;5.03;;;18.50;52.70;;;;;;5107276;27;45606;-79
2022/03/29 04:58:56;;;;;;;8.90;5.53;;;18.40;52.00;;;;;;5109059;27;45151;-79
2022/03/29 05:01:22;;;;;;;9.20;6.05;;;18.50;51.60;;;;;;5107228;27;45299;-78
2022/03/29 05:03:51;;;;;;;9.13;5.47;;;18.50;51.20;;;;;;5108125;27;47385;-79
2022/03/29 05:06:17;;;;;;;10.95;5.97;;;18.50;51.30;;;;;;5105911;27;45741;-79
2022/03/29 05:08:44;;;;;;;10.35;5.38;;;18.50;51.00;;;;;;5106045;27;45205;-79
2022/03/29 05:11:11;;;;;;;7.82;4.85;;;18.50;52.70;;;;;;5107136;27;45566;-79
2022/03/29 05:13:38;;;;;;;8.52;4.63;;;18.50;53.30;;;;;;5098259;27;46198;-78
2022/03/29 05:16:05;;;;;;;11.05;5.72;;;18.50;52.70;;;;;;5109412;27;45246;-78
2022/03/29 05:18:32;;;;;;;11.40;5.70;;;18.50;52.70;;;;;;5106531;27;45376;-78
2022/03/29 05:21:00;;;;;;;8.93;5.35;;;18.50;52.50;;;;;;5107798;27;45238;-78
2022/03/29 05:23:27;;;;;;;8.40;4.95;;;18.40;52.00;;;;;;5105644;27;47101;-78
2022/03/29 05:25:54;;;;;;;7.65;4.68;;;18.40;51.60;;;;;;5114326;27;45482;-78
2022/03/29 05:28:20;;;;;;;8.30;4.65;;;18.40;51.60;;;;;;5107988;27;45267;-78
2022/03/29 05:30:49;;;;;;;8.68;5.07;;;18.40;52.60;;;;;;5106619;27;45485;-78
2022/03/29 05:33:18;;;;;;;6.88;4.30;;;18.40;52.60;;;;;;5107514;27;45407;-78
2022/03/29 05:35:45;;;;;;;7.85;4.15;;;18.50;52.70;;;;;;5108152;27;45242;-78
2022/03/29 05:38:13;;;;;;;7.57;4.68;;;18.50;52.30;;;;;;5099914;27;45525;-78
2022/03/29 05:40:41;;;;;;;8.77;4.25;;;18.50;52.60;;;;;;5106141;27;45142;-78
2022/03/29 05:43:11;;;;;;;7.93;5.30;;;18.50;52.70;;;;;;5106098;27;45219;-79
2022/03/29 05:45:39;;;;;;;9.18;4.90;;;18.50;52.70;;;;;;5106239;27;45272;-78
2022/03/29 05:50:52;;;;;;;8.38;5.20;;;18.60;52.80;;;;;;5101860;27;45364;-78
2022/03/29 05:53:20;;;;;;;8.80;5.53;;;18.60;52.80;;;;;;5106266;27;46724;-78
2022/03/29 05:55:48;;;;;;;8.75;5.75;;;18.60;52.80;;;;;;5120817;27;45297;-78
2022/03/29 05:58:16;;;;;;;8.93;5.65;;;18.60;52.80;;;;;;5106343;27;45324;-78
2022/03/29 06:00:43;;;;;;;8.73;5.15;;;18.60;52.80;;;;;;5106986;27;45364;-78
2022/03/29 06:03:10;;;;;;;9.23;5.25;;;18.60;52.80;;;;;;5106945;27;46426;-78
2022/03/29 06:05:41;;;;;;;9.45;5.60;;;18.60;52.80;;;;;;5107527;27;45324;-78
2022/03/29 06:08:09;;;;;;;8.95;5.72;;;18.60;52.80;;;;;;5108132;27;45157;-78
2022/03/29 06:10:38;;;;;;;10.10;5.82;;;18.60;52.80;;;;;;5108206;27;45351;-79
2022/03/29 06:13:06;;;;;;;8.48;5.20;;;18.60;52.90;;;;;;5108167;27;45164;-78
2022/03/29 06:15:32;;;;;;;8.52;4.95;;;18.60;53.10;;;;;;5108230;27;45217;-79
2022/03/29 06:17:59;;;;;;;6.40;4.25;;;18.60;53.30;;;;;;5104576;27;45184;-78
2022/03/29 06:20:26;;;;;;;8.02;4.95;;;18.60;53.40;;;;;;5107260;27;45144;-79
2022/03/29 06:22:53;;;;;;;12.27;5.18;;;18.60;53.60;;;;;;5108186;27;46911;-79
2022/03/29 06:25:19;;;;;;;8.43;4.80;;;18.60;53.60;;;;;;5106440;27;45521;-78
2022/03/29 06:27:49;;;;;;;6.88;4.15;;;18.60;53.70;;;;;;5107301;27;45269;-78
2022/03/29 06:30:16;;;;;;;8.73;4.78;;;18.60;53.60;;;;;;5097464;27;45772;-78
2022/03/29 06:32:47;;;;;;;8.07;4.90;;;18.70;53.80;;;;;;5105644;27;46191;-78
2022/03/29 06:35:14;;;;;;;7.50;4.25;;;18.60;53.70;;;;;;5100206;27;45350;-78
2022/03/29 06:37:40;;;;;;;7.85;4.03;;;18.70;53.90;;;;;;5104357;27;45397;-78
2022/03/29 06:40:09;;;;;;;8.18;4.70;;;18.60;54.00;;;;;;5099636;27;45381;-78
2022/03/29 06:42:36;;;;;;;7.18;5.10;;;18.60;53.90;;;;;;5106258;27;46680;-79
2022/03/29 06:45:05;;;;;;;7.35;4.63;;;18.60;54.20;;;;;;5106668;27;45196;-78
2022/03/29 06:47:32;;;;;;;8.00;4.90;;;18.60;54.20;;;;;;5101900;27;45760;-78
2022/03/29 06:49:59;;;;;;;7.20;4.75;;;18.60;54.10;;;;;;5096029;27;45218;-78
2022/03/29 06:52:28;;;;;;;7.32;5.18;;;18.60;54.20;;;;;;5099005;27;48043;-78
2022/03/29 06:54:55;;;;;;;7.38;4.85;;;18.60;54.30;;;;;;5102279;27;45435;-78
2022/03/29 06:57:22;;;;;;;9.45;5.53;;;18.60;54.30;;;;;;5108184;27;45163;-78
2022/03/29 06:59:48;;;;;;;8.95;5.70;;;18.60;54.20;;;;;;5105024;27;45163;-78
2022/03/29 07:02:17;;;;;;;9.32;5.68;;;18.60;54.30;;;;;;5109634;27;47431;-78
2022/03/29 07:04:43;;;;;;;9.55;5.82;;;18.60;54.40;;;;;;5122044;27;45234;-78
2022/03/29 07:07:10;;;;;;;7.13;4.65;;;18.60;54.40;;;;;;5103119;27;45409;-78
2022/03/29 07:12:21;;;;;;;5.88;4.38;;;18.60;54.30;;;;;;5104676;27;45279;-78
2022/03/29 07:14:48;;;;;;;8.23;5.05;;;18.60;54.40;;;;;;5106680;27;45181;-78
2022/03/29 07:17:17;;;;;;;8.20;5.10;;;18.60;54.30;;;;;;5102654;27;45274;-78
2022/03/29 07:19:46;;;;;;;7.85;5.63;;;18.70;54.40;;;;;;5106355;27;45449;-78
2022/03/29 07:22:12;;;;;;;6.88;4.38;;;18.70;54.30;;;;;;5105037;27;47162;-79
2022/03/29 07:24:39;;;;;;;9.05;5.43;;;18.60;54.20;;;;;;5104562;27;45582;-78
2022/03/29 07:27:07;;;;;;;9.00;5.25;;;18.60;54.30;;;;;;5104931;27;45169;-78
2022/03/29 07:29:34;;;;;;;8.30;5.50;;;18.70;54.40;;;;;;5106951;27;45582;-78
2022/03/29 07:32:01;;;;;;;8.60;5.50;;;18.70;54.50;;;;;;5106089;27;45316;-78
2022/03/29 07:34:35;;;;;;;7.65;4.80;;;18.70;54.60;;;;;;5105642;27;45295;-78
2022/03/29 07:37:02;;;;;;;9.13;5.85;;;18.60;54.60;;;;;;5107159;27;45221;-78
2022/03/29 07:39:29;;;;;;;8.75;5.50;;;18.60;54.80;;;;;;5105963;27;45553;-78
2022/03/29 07:41:56;;;;;;;10.05;6.43;;;18.60;54.80;;;;;;5105647;27;47431;-78
2022/03/29 07:44:23;;;;;;;7.85;4.97;;;18.60;55.10;;;;;;5106314;27;45202;-78
2022/03/29 07:46:50;;;;;;;9.63;5.72;;;18.60;55.00;;;;;;5105999;27;45546;-78
2022/03/29 07:49:17;;;;;;;11.77;6.10;;;18.60;55.10;;;;;;5105301;27;45277;-78
2022/03/29 07:51:45;;;;;;;10.77;6.18;;;18.60;55.10;;;;;;5104879;27;45462;-78
2022/03/29 07:54:12;;;;;;;9.48;6.03;;;18.60;55.20;;;;;;5105600;27;45156;-78
2022/03/29 07:56:39;;;;;;;11.27;6.72;;;18.60;55.30;;;;;;5111547;27;45166;-78
2022/03/29 07:59:05;;;;;;;7.30;5.00;;;18.60;55.30;;;;;;5108534;27;45274;-78
2022/03/29 08:01:32;;;;;;;9.15;4.82;;;18.60;55.10;;;;;;5108814;27;45454;-78
2022/03/29 08:03:59;;;;;;;10.00;5.45;;;18.60;55.10;;;;;;5111064;27;45473;-78
2022/03/29 08:06:25;;;;;;;9.90;5.57;;;18.60;55.00;;;;;;5109353;27;46733;-78
2022/03/29 08:08:54;;;;;;;11.68;6.65;;;18.60;55.00;;;;;;5108487;27;45289;-78
2022/03/29 08:11:22;;;;;;;7.53;5.30;;;18.60;55.10;;;;;;5108637;27;46197;-78
2022/03/29 08:13:48;;;;;;;9.30;5.82;;;18.70;55.20;;;;;;5124729;27;45799;-78
2022/03/29 08:16:16;;;;;;;8.27;5.32;;;18.70;55.10;;;;;;5108751;27;45326;-78
2022/03/29 08:18:43;;;;;;;7.15;5.18;;;18.70;55.10;;;;;;5107855;27;45189;-78
2022/03/29 08:23:50;;;;;;;8.52;5.70;;;18.70;55.20;;;;;;5102247;27;45382;-78
2022/03/29 08:26:18;;;;;;;8.18;5.35;;;18.70;55.40;;;;;;5110778;27;45132;-79
2022/03/29 08:28:45;;;;;;;10.00;6.25;;;18.70;55.70;;;;;;5105169;27;45318;-78
2022/03/29 08:31:12;;;;;;;9.73;5.75;;;18.60;55.70;;;;;;5107486;27;47669;-78
2022/03/29 08:33:41;;;;;;;8.15;5.50;;;18.60;55.70;;;;;;5109139;27;45270;-78
2022/03/29 08:36:08;;;;;;;9.52;5.90;;;18.60;55.70;;;;;;5104504;27;45416;-78
2022/03/29 08:38:35;;;;;;;8.80;6.10;;;18.60;55.80;;;;;;5109645;27;45470;-78
2022/03/29 08:41:02;;;;;;;10.27;6.28;;;18.60;55.90;;;;;;5109349;27;46224;-78
2022/03/29 08:43:31;;;;;;;7.82;5.35;;;18.60;55.90;;;;;;5096049;27;45318;-78
2022/03/29 08:45:58;;;;;;;9.60;5.72;;;18.60;55.90;;;;;;5107987;27;45214;-78
2022/03/29 08:48:26;;;;;;;9.80;6.05;;;18.60;55.90;;;;;;5108553;27;45378;-78
2022/03/29 08:50:54;;;;;;;7.65;5.32;;;18.60;56.00;;;;;;5106928;27;45189;-78
2022/03/29 08:53:22;;;;;;;7.75;4.85;;;18.60;55.80;;;;;;5107821;27;45200;-78
2022/03/29 08:55:50;;;;;;;8.07;5.47;;;18.60;55.60;;;;;;5110232;27;45149;-78
2022/03/29 08:58:17;;;;;;;8.75;5.13;;;18.60;55.70;;;;;;5109428;27;45248;-78
2022/03/29 09:00:48;;;;;;;7.72;5.55;;;18.60;55.60;;;;;;5106506;27;46198;-78
2022/03/29 09:03:16;;;;;;;7.38;4.82;;;18.70;55.60;;;;;;5108910;27;45237;-78
2022/03/29 09:05:44;;;;;;;8.23;4.78;;;18.70;55.60;;;;;;5108331;27;45785;-79
2022/03/29 09:08:13;;;;;;;7.30;4.82;;;18.70;55.50;;;;;;5105712;27;45312;-78
2022/03/29 09:10:42;;;;;;;7.90;5.00;;;18.70;55.70;;;;;;5106983;27;46153;-78
2022/03/29 09:13:20;;;;;;;7.85;5.32;;;18.70;55.70;;;;;;5108970;27;45240;-78
2022/03/29 09:15:48;;;;;;;10.40;6.22;;;18.70;55.80;;;;;;5107933;27;45394;-78
2022/03/29 09:18:15;;;;;;;10.02;6.03;;;18.70;56.00;;;;;;5108148;27;45210;-78
2022/03/29 09:20:42;;;;;;;8.00;5.65;;;18.70;56.30;;;;;;5107302;27;47081;-79
2022/03/29 09:23:14;;;;;;;9.05;5.68;;;18.60;56.10;;;;;;5113761;27;45590;-78
2022/03/29 09:25:46;;;;;;;9.43;6.30;;;18.60;56.20;;;;;;5108744;27;45277;-78
2022/03/29 09:28:14;;;;;;;12.52;7.13;;;18.60;56.20;;;;;;5108097;27;45153;-78
2022/03/29 09:30:43;;;;;;;8.95;5.90;;;18.60;56.20;;;;;;5108101;27;47922;-79
2022/03/29 09:33:13;;;;;;;8.75;6.05;;;18.60;56.40;;;;;;5105865;27;45387;-78
2022/03/29 09:35:56;;;;;;;10.75;6.65;;;18.60;56.40;;;;;;5109073;27;45249;-78
2022/03/29 09:38:26;;;;;;;11.75;6.80;;;18.60;56.40;;;;;;5107927;27;45360;-78
2022/03/29 09:40:55;;;;;;;10.25;6.30;;;18.60;56.60;;;;;;5108255;27;45486;-78
2022/03/29 09:43:23;;;;;;;7.88;5.38;;;18.60;56.50;;;;;;5100838;27;46244;-78
2022/03/29 09:45:52;;;;;;;9.68;6.82;;;18.60;56.30;;;;;;5103652;27;45332;-78
2022/03/29 09:48:23;;;;;;;9.05;6.10;;;18.70;56.20;;;;;;5098966;27;45204;-78
2022/03/29 09:50:50;;;;;;;9.23;6.20;;;18.70;56.20;;;;;;5102385;27;45456;-78
2022/03/29 09:53:35;;;;;;;8.38;6.07;;;18.70;56.30;;;;;;5101689;27;45347;-78
2022/03/29 09:56:03;;;;;;;10.63;6.78;;;18.70;56.20;;;;;;5097388;27;45171;-78
2022/03/29 09:58:30;;;;;;;9.60;6.90;;;18.70;56.10;;;;;;5106770;27;45213;-77
2022/03/29 10:00:57;;;;;;;9.70;6.00;;;18.70;56.10;;;;;;5105252;27;46580;-78
2022/03/29 10:03:26;;;;;;;10.70;6.90;;;18.70;56.30;;;;;;5107962;27;45155;-78
2022/03/29 10:06:01;;;;;;;9.63;6.38;;;18.70;56.20;;;;;;5105164;27;45555;-78
2022/03/29 10:11:16;;;;;;;12.73;8.30;;;18.70;56.80;;;;;;5106845;27;45519;-78
2022/03/29 10:13:43;;;;;;;12.95;7.90;;;18.60;56.60;;;;;;5101646;27;45421;-78
2022/03/29 10:16:13;;;;;;;11.60;7.82;;;18.60;56.70;;;;;;5105684;27;45336;-78
2022/03/29 10:18:43;;;;;;;14.25;8.15;;;18.60;56.90;;;;;;5106204;27;45361;-78
2022/03/29 10:21:12;;;;;;;10.10;7.20;;;18.60;56.80;;;;;;5101856;27;45259;-78
2022/03/29 10:23:40;;;;;;;10.10;7.13;;;18.60;57.00;;;;;;5098800;27;45348;-78
2022/03/29 10:26:09;;;;;;;10.60;7.45;;;18.60;57.10;;;;;;5107378;27;45665;-78
2022/03/29 10:28:36;;;;;;;13.32;8.20;;;18.60;57.10;;;;;;5106195;27;45135;-78
2022/03/29 10:31:03;;;;;;;11.40;7.47;;;18.60;57.10;;;;;;5107853;27;48147;-78
2022/03/29 10:33:33;;;;;;;12.30;7.90;;;18.60;57.30;;;;;;5118461;27;45380;-78
2022/03/29 10:36:09;;;;;;;10.77;7.63;;;18.60;57.20;;;;;;5107964;27;45564;-79
2022/03/29 10:39:01;;;;;;;9.55;6.35;;;18.60;56.90;;;;;;5107572;27;45391;-78
2022/03/29 10:41:50;;;;;;;10.23;6.68;;;18.70;56.90;;;;;;5095148;27;45400;-78
2022/03/29 10:44:17;;;;;;;10.25;6.75;;;18.70;56.80;;;;;;5107609;27;45349;-78
2022/03/29 10:46:46;;;;;;;10.50;7.22;;;18.70;56.70;;;;;;5104084;27;45462;-78
2022/03/29 10:49:24;;;;;;;11.55;8.10;;;18.70;56.70;;;;;;5104886;27;45201;-78
2022/03/29 10:51:57;;;;;;;10.65;7.47;;;18.70;56.80;;;;;;5104655;27;46685;-78
2022/03/29 10:54:32;;;;;;;15.80;9.93;;;18.70;56.60;;;;;;5088250;28;45156;-78
2022/03/29 10:57:01;;;;;;;15.50;9.95;;;18.70;56.80;;;;;;5097417;27;45215;-78
2022/03/29 10:59:29;;;;;;;17.67;10.27;;;18.70;57.00;;;;;;5107170;27;45491;-79
2022/03/29 11:02:13;;;;;;;18.55;10.88;;;18.70;57.20;;;;;;5107493;27;47372;-79
2022/03/29 11:05:02;;;;;;;21.30;11.93;;;18.60;57.20;;;;;;5107733;27;45263;-78
2022/03/29 11:07:30;;;;;;;18.88;11.93;;;18.60;57.10;;;;;;5104668;27;45286;-79
2022/03/29 11:10:13;;;;;;;18.85;11.82;;;18.60;57.00;;;;;;5105797;27;45668;-78
2022/03/29 11:12:45;;;;;;;21.08;12.27;;;18.60;57.10;;;;;;5100278;27;48244;-78
2022/03/29 11:15:45;;;;;;;22.20;12.55;;;18.60;57.00;;;;;;5106285;27;45548;-78
2022/03/29 11:18:49;;;;;;;20.15;12.32;;;18.60;58.30;;;;;;5102462;27;45360;-78
2022/03/29 11:21:37;;;;;;;23.23;12.57;;;18.60;57.20;;;;;;5105701;27;45214;-78
2022/03/29 11:24:08;;;;;;;21.02;12.10;;;18.60;57.10;;;;;;5096485;27;47056;-78
2022/03/29 11:26:36;;;;;;;19.13;11.02;;;18.60;56.90;;;;;;5107499;27;45173;-78
2022/03/29 11:29:06;;;;;;;18.20;10.60;;;18.60;56.60;;;;;;5101610;27;45238;-78
2022/03/29 11:31:35;;;;;;;19.48;11.27;;;18.70;56.60;;;;;;5106678;27;45377;-78
2022/03/29 11:34:03;;;;;;;20.52;12.35;;;18.70;56.40;;;;;;5108360;27;45401;-78
2022/03/29 11:36:30;;;;;;;21.30;12.18;;;18.70;56.40;;;;;;5108602;27;45273;-78
2022/03/29 11:38:57;;;;;;;19.77;12.02;;;18.70;56.30;;;;;;5100196;27;45228;-78
2022/03/29 11:41:28;;;;;;;19.65;12.10;;;18.70;56.20;;;;;;5109477;27;45108;-78
2022/03/29 11:43:58;;;;;;;18.88;10.75;;;18.70;56.20;;;;;;5114138;27;46472;-78
2022/03/29 11:46:26;;;;;;;22.13;12.30;;;18.70;56.10;;;;;;5103739;27;45246;-78
2022/03/29 11:48:53;;;;;;;21.95;12.70;;;18.70;56.20;;;;;;5102399;27;45542;-78
2022/03/29 11:51:21;;;;;;;20.17;11.55;;;18.70;56.20;;;;;;5096748;27;45244;-78
2022/03/29 11:53:57;;;;;;;24.15;14.30;;;18.70;56.20;;;;;;5108245;27;46270;-78
2022/03/29 11:56:26;;;;;;;26.17;15.25;;;18.60;56.10;;;;;;5101082;27;45626;-79
2022/03/29 11:58:55;;;;;;;25.40;15.05;;;18.60;56.10;;;;;;5109923;27;45816;-78
2022/03/29 12:01:25;;;;;;;23.60;14.32;;;18.60;56.00;;;;;;5098137;27;45308;-79
2022/03/29 12:03:55;;;;;;;25.70;14.98;;;18.60;55.90;;;;;;5109497;27;46416;-78
2022/03/29 12:06:24;;;;;;;24.73;14.30;;;18.60;55.90;;;;;;5110772;27;46319;-78
2022/03/29 12:08:53;;;;;;;22.23;13.30;;;18.60;55.90;;;;;;5106180;27;45299;-78
2022/03/29 12:11:23;;;;;;;24.63;14.48;;;18.60;55.80;;;;;;5108854;27;45392;-78
2022/03/29 12:14:01;;;;;;;28.70;15.02;;;18.60;55.90;;;;;;5107995;27;46009;-78
2022/03/29 12:16:29;;;;;;;21.63;12.38;;;18.60;55.90;;;;;;5108870;27;45449;-78
2022/03/29 12:18:56;;;;;;;19.85;12.90;;;18.60;55.90;;;;;;5106090;27;45712;-78
2022/03/29 12:21:24;;;;;;;21.92;12.95;;;18.60;55.80;;;;;;5110076;27;45438;-78
2022/03/29 12:24:00;;;;;;;24.00;14.07;;;18.60;55.70;;;;;;5089924;27;45306;-78
2022/03/29 12:26:29;;;;;;;21.30;12.13;;;18.70;55.80;;;;;;5107713;27;45199;-78
2022/03/29 12:28:58;;;;;;;18.45;11.57;;;18.70;55.60;;;;;;5107514;27;45363;-78
2022/03/29 12:31:27;;;;;;;23.00;13.00;;;18.70;55.50;;;;;;5104563;27;45232;-78
2022/03/29 12:33:54;;;;;;;21.73;12.13;;;18.70;55.50;;;;;;5106402;27;47247;-78
2022/03/29 12:36:21;;;;;;;20.55;11.80;;;18.70;55.50;;;;;;5104009;27;45359;-78
2022/03/29 12:38:50;;;;;;;25.60;14.85;;;18.70;55.50;;;;;;5109418;27;45316;-78
2022/03/29 12:41:32;;;;;;;22.70;13.13;;;18.70;55.20;;;;;;5097742;27;45655;-78
2022/03/29 12:44:01;;;;;;;25.58;14.13;;;18.70;56.50;;;;;;5097537;27;48336;-78
2022/03/29 12:46:28;;;;;;;29.52;16.00;;;18.70;55.50;;;;;;5108710;27;45298;-78
2022/03/29 12:48:56;;;;;;;23.85;15.25;;;18.60;55.50;;;;;;5105486;27;45229;-79
2022/03/29 12:51:28;;;;;;;27.55;16.13;;;18.60;55.40;;;;;;5109085;27;45309;-78
2022/03/29 12:53:56;;;;;;;26.92;16.35;;;18.60;55.30;;;;;;5110719;27;47138;-78
2022/03/29 12:56:31;;;;;;;27.08;15.82;;;18.60;55.20;;;;;;5113051;27;45476;-78
2022/03/29 12:58:58;;;;;;;27.77;15.35;;;18.60;55.30;;;;;;5108946;27;45195;-78
2022/03/29 13:01:29;;;;;;;27.83;16.42;;;18.60;55.20;;;;;;5109897;27;45368;-78
2022/03/29 13:04:06;;;;;;;29.23;16.55;;;18.60;55.10;;;;;;5107688;27;45470;-78